Time;durP1;ratioP1;P1;durP2;ratioP2;P2;SDS_P1;SDS_P2;PMS_P1;PMS_P2;Temp;Humidity;BMP_temperature;BMP_pressure;BME280_temperature;BME280_humidity;BME280_pressure;Samples;Min_cycle;Max_cycle;Signal;HPM_P1;HPM_P2
2023/09/03 00:01:08;;;;;;;;;2.75;2.75;;;;;23.81;63.29;101817.56;5058271;28;45413;-47
2023/09/03 00:03:33;;;;;;;;;4.25;3.75;;;;;23.80;63.30;101819.41;5058408;28;45779;-49
2023/09/03 00:05:59;;;;;;;;;1.25;1.25;;;;;23.79;63.17;101828.63;5058326;28;45434;-49
2023/09/03 00:08:24;;;;;;;;;5.25;3.75;;;;;23.76;63.64;101820.03;5057940;28;46395;-47
2023/09/03 00:10:51;;;;;;;;;4.00;4.00;;;;;23.74;63.45;101822.97;5058031;28;45528;-48
2023/09/03 00:13:16;;;;;;;;;2.40;2.40;;;;;23.71;63.65;101822.56;5058160;28;45249;-46
2023/09/03 00:15:42;;;;;;;;;4.25;3.00;;;;;23.68;63.92;101825.69;5058256;28;45377;-48
2023/09/03 00:18:08;;;;;;;;;4.25;4.25;;;;;23.69;63.52;101841.78;5057769;28;46206;-48
2023/09/03 00:20:33;;;;;;;;;4.00;2.40;;;;;23.68;63.70;101828.38;5056833;28;45381;-52
2023/09/03 00:22:59;;;;;;;;;1.50;1.50;;;;;23.65;63.47;101835.09;5058002;28;45306;-51
2023/09/03 00:25:24;;;;;;;;;3.50;3.50;;;;;23.62;63.60;101830.88;5058025;28;45311;-47
2023/09/03 00:27:49;;;;;;;;;2.50;2.50;;;;;23.61;63.71;101823.78;5058252;28;46541;-49
2023/09/03 00:30:16;;;;;;;;;3.00;3.00;;;;;23.62;63.71;101833.59;5057879;28;45275;-50
2023/09/03 00:32:41;;;;;;;;;3.40;2.00;;;;;23.62;63.72;101832.75;5057963;28;45401;-51
2023/09/03 00:35:07;;;;;;;;;1.50;1.50;;;;;23.59;64.03;101828.56;5058172;28;45430;-47
2023/09/03 00:37:32;;;;;;;;;3.50;3.50;;;;;23.58;63.56;101832.31;5057157;28;45721;-51
2023/09/03 00:39:58;;;;;;;;;2.25;2.25;;;;;23.59;63.86;101838.59;5057591;28;45311;-51
2023/09/03 00:42:23;;;;;;;;;4.00;3.00;;;;;23.58;63.94;101842.34;5057592;28;45448;-48
2023/09/03 00:44:48;;;;;;;;;3.00;3.00;;;;;23.53;63.90;101840.25;5057820;28;45412;-50
2023/09/03 00:47:16;;;;;;;;;2.50;2.50;;;;;23.52;63.75;101846.75;5057461;28;46976;-49
2023/09/03 00:49:42;;;;;;;;;2.60;2.60;;;;;23.48;63.76;101848.19;5057264;28;45389;-47
2023/09/03 00:52:10;;;;;;;;;6.60;5.00;;;;;23.48;63.76;101850.06;5057360;28;45272;-50
2023/09/03 00:54:35;;;;;;;;;3.60;3.60;;;;;23.47;64.00;101851.97;5057650;28;45230;-48
2023/09/03 00:57:02;;;;;;;;;3.00;3.00;;;;;23.45;64.05;101847.75;5057065;28;47471;-47
2023/09/03 00:59:29;;;;;;;;;3.00;3.00;;;;;23.40;64.02;101851.94;5057079;28;45397;-46
2023/09/03 01:01:55;;;;;;;;;6.40;5.40;;;;;23.40;64.27;101849.22;5057220;28;45417;-49
2023/09/03 01:04:20;;;;;;;;;3.00;3.00;;;;;23.38;63.78;101853.16;5057257;28;45573;-48
2023/09/03 01:06:51;;;;;;;;;1.75;1.75;;;;;23.39;64.16;101852.97;5056988;28;45594;-51
2023/09/03 01:09:17;;;;;;;;;1.00;1.00;;;;;23.36;64.31;101844.41;5057266;28;45284;-50
2023/09/03 01:12:07;;;;;;;;;6.40;4.80;;;;;23.33;64.61;101856.50;5057126;28;45375;-49
2023/09/03 01:14:48;;;;;;;;;7.20;7.20;;;;;23.35;64.43;101859.03;5057342;28;45431;-50
2023/09/03 01:17:18;;;;;;;;;7.80;7.00;;;;;23.34;64.06;101857.31;5056777;28;47421;-51
2023/09/03 01:20:24;;;;;;;;;7.60;4.80;;;;;23.32;64.49;101848.56;5057059;28;45168;-50
2023/09/03 01:23:07;;;;;;;;;8.00;4.20;;;;;23.28;64.45;101839.97;5014692;28;45503;-49
2023/09/03 01:25:48;;;;;;;;;3.00;3.00;;;;;23.28;65.03;101842.69;5015030;28;45408;-51
2023/09/03 01:28:29;;;;;;;;;4.20;3.00;;;;;23.27;65.02;101826.63;5014422;28;45684;-49
2023/09/03 01:30:57;;;;;;;;;6.00;5.40;;;;;23.25;64.95;101824.09;5014535;28;45377;-50
2023/09/03 01:33:26;;;;;;;;;9.60;5.00;;;;;23.21;64.76;101820.13;5014327;28;45437;-51
2023/09/03 01:35:53;;;;;;;;;4.60;4.60;;;;;23.22;65.13;101824.53;5013678;28;45588;-50
2023/09/03 01:38:19;;;;;;;;;5.80;4.00;;;;;23.14;65.01;101800.28;5014269;28;45549;-52
2023/09/03 01:40:48;;;;;;;;;2.80;2.60;;;;;23.09;65.18;101803.59;5014500;28;45741;-51
2023/09/03 01:43:13;;;;;;;;;3.20;3.20;;;;;23.13;64.97;101806.72;5014458;28;45870;-50
2023/09/03 01:46:07;;;;;;;;;4.00;3.25;;;;;22.90;64.96;101771.78;5014550;28;45452;-49
2023/09/03 01:48:57;;;;;;;;;3.00;3.00;;;;;23.12;64.72;101808.59;5012514;28;45527;-49
2023/09/03 01:51:42;;;;;;;;;2.60;2.60;;;;;23.10;64.75;101802.56;5013862;28;45672;-51
2023/09/03 01:54:16;;;;;;;;;4.60;1.80;;;;;23.06;65.19;101803.16;5014205;28;45764;-46
2023/09/03 01:57:07;;;;;;;;;2.80;2.80;;;;;22.98;64.94;101797.91;5014502;28;45528;-47
2023/09/03 01:59:42;;;;;;;;;4.20;3.00;;;;;23.01;65.01;101801.06;5012160;28;46063;-50
2023/09/03 02:02:09;;;;;;;;;2.40;2.40;;;;;22.96;65.58;101795.38;5013922;28;45549;-49
2023/09/03 02:04:35;;;;;;;;;4.00;3.40;;;;;22.93;65.18;101790.38;4997550;28;45468;-50
2023/09/03 02:07:00;;;;;;;;;3.50;3.50;;;;;22.96;65.66;101794.56;5014057;28;45447;-48
2023/09/03 02:09:25;;;;;;;;;3.75;3.75;;;;;22.93;65.85;101790.38;5014040;28;46015;-47
2023/09/03 02:11:51;;;;;;;;;4.00;3.25;;;;;22.93;66.24;101803.97;5013813;28;45392;-51
2023/09/03 02:14:16;;;;;;;;;2.00;2.00;;;;;22.92;65.83;101799.53;5014295;28;45864;-50
2023/09/03 02:16:41;;;;;;;;;3.00;3.00;;;;;22.90;65.69;101802.47;5014128;28;45578;-48
2023/09/03 02:19:07;;;;;;;;;5.25;2.25;;;;;22.86;66.12;101794.91;4997148;28;47171;-47
2023/09/03 02:21:32;;;;;;;;;3.00;3.00;;;;;22.87;66.06;101796.56;5013781;28;45472;-48
2023/09/03 02:23:57;;;;;;;;;3.00;3.00;;;;;22.84;66.17;101802.44;5013912;28;45430;-51
2023/09/03 02:26:23;;;;;;;;;2.25;2.00;;;;;22.86;66.04;101811.19;5014134;28;45474;-49
2023/09/03 02:28:48;;;;;;;;;4.75;3.50;;;;;22.84;66.21;101819.53;5013955;28;45290;-48
2023/09/03 02:31:13;;;;;;;;;3.00;3.00;;;;;22.83;66.28;101817.00;5013580;28;45401;-46
2023/09/03 02:33:39;;;;;;;;;3.00;3.00;;;;;22.84;66.46;101829.56;5014045;28;45338;-48
2023/09/03 02:36:04;;;;;;;;;4.25;4.25;;;;;22.82;66.55;101828.91;5027245;28;45553;-52
2023/09/03 02:38:29;;;;;;;;;2.00;2.00;;;;;22.82;66.46;101831.63;5055876;28;45601;-51
2023/09/03 02:40:55;;;;;;;;;4.00;4.00;;;;;22.79;66.36;101826.59;5055968;28;45433;-52
2023/09/03 02:43:21;;;;;;;;;4.00;3.00;;;;;22.74;66.28;101820.94;5057058;28;45447;-51
2023/09/03 02:45:47;;;;;;;;;6.00;3.00;;;;;22.71;66.53;101818.63;5059942;28;45444;-49
2023/09/03 02:48:12;;;;;;;;;3.75;2.00;;;;;22.75;66.69;101825.31;5059137;28;46470;-48
2023/09/03 02:50:38;;;;;;;;;3.00;3.00;;;;;22.77;66.68;101829.50;5059435;28;45323;-46
2023/09/03 02:53:07;;;;;;;;;5.50;4.25;;;;;22.77;66.63;101828.69;5059164;28;45384;-47
2023/09/03 02:55:33;;;;;;;;;6.40;4.20;;;;;22.74;66.59;101826.38;5059432;28;45285;-47
2023/09/03 02:57:58;;;;;;;;;7.00;5.00;;;;;22.74;66.78;101834.50;5057891;28;46422;-48
2023/09/03 03:00:24;;;;;;;;;6.25;6.25;;;;;22.72;66.98;101844.72;5059032;28;45338;-48
2023/09/03 03:02:52;;;;;;;;;10.50;5.25;;;;;22.62;67.36;101826.91;5059489;28;45415;-52
2023/09/03 03:05:17;;;;;;;;;6.00;5.20;;;;;22.67;66.83;101839.91;5059212;28;45493;-49
2023/09/03 03:07:42;;;;;;;;;6.00;6.00;;;;;22.66;66.89;101849.88;5058284;28;45991;-48
2023/09/03 03:10:09;;;;;;;;;7.50;6.75;;;;;22.63;66.98;101853.03;5058949;28;45346;-50
2023/09/03 03:12:34;;;;;;;;;4.60;4.60;;;;;22.62;66.98;101851.31;5059119;28;45418;-47
2023/09/03 03:14:59;;;;;;;;;8.25;5.00;;;;;22.61;67.05;101851.53;5059272;28;45298;-51
2023/09/03 03:17:25;;;;;;;;;6.00;4.00;;;;;22.59;67.04;101840.91;5058876;28;45800;-50
2023/09/03 03:19:50;;;;;;;;;5.75;5.75;;;;;22.58;67.29;101847.34;5058841;28;45441;-48
2023/09/03 03:22:16;;;;;;;;;5.00;5.00;;;;;22.54;67.25;101840.63;5057574;28;45349;-49
2023/09/03 03:24:41;;;;;;;;;4.50;4.00;;;;;22.54;67.08;101847.94;5059088;28;45432;-48
2023/09/03 03:27:07;;;;;;;;;3.75;3.00;;;;;22.46;67.31;101838.09;5058654;28;46098;-50
2023/09/03 03:29:32;;;;;;;;;3.75;3.75;;;;;22.47;66.98;101842.50;5058694;28;45337;-52
2023/09/03 03:31:58;;;;;;;;;4.50;4.00;;;;;22.51;67.04;101856.50;5058854;28;45763;-48
2023/09/03 03:34:25;;;;;;;;;3.20;3.20;;;;;22.48;66.97;101859.59;5058828;28;45439;-51
2023/09/03 03:36:50;;;;;;;;;3.20;3.20;;;;;22.44;67.48;101859.16;5058433;28;46305;-50
2023/09/03 03:39:16;;;;;;;;;2.00;2.00;;;;;22.43;67.36;101857.47;5058501;28;45385;-51
2023/09/03 03:41:41;;;;;;;;;5.00;3.00;;;;;22.46;67.37;101870.66;5058747;28;45325;-52
2023/09/03 03:44:07;;;;;;;;;3.00;3.00;;;;;22.44;67.39;101866.44;5058597;28;45544;-51
2023/09/03 03:46:32;;;;;;;;;3.00;2.50;;;;;22.45;67.64;101871.66;5058535;28;45388;-51
2023/09/03 03:48:59;;;;;;;;;3.50;3.50;;;;;22.42;67.05;101870.19;5058425;28;45393;-50
2023/09/03 03:51:24;;;;;;;;;3.80;3.40;;;;;22.41;67.76;101882.06;5058469;28;45399;-50
2023/09/03 03:53:50;;;;;;;;;2.00;2.00;;;;;22.36;67.01;101879.09;5058574;28;45522;-49
2023/09/03 03:56:15;;;;;;;;;4.50;3.75;;;;;22.37;67.70;101882.66;5057104;28;46449;-46
2023/09/03 03:58:44;;;;;;;;;3.25;3.00;;;;;22.30;66.89;101881.78;5058377;28;45311;-46
2023/09/03 04:01:17;;;;;;;;;3.00;3.00;;;;;22.33;67.42;101886.78;5058058;28;45352;-50
2023/09/03 04:03:44;;;;;;;;;3.00;3.00;;;;;22.27;67.33;101891.13;5057091;28;45531;-48
2023/09/03 04:06:10;;;;;;;;;2.80;2.80;;;;;22.29;67.65;101908.06;5058218;28;45345;-44
2023/09/03 04:08:37;;;;;;;;;3.00;3.00;;;;;22.24;67.33;101910.50;5057731;28;45374;-46
2023/09/03 04:11:08;;;;;;;;;4.20;3.80;;;;;22.23;67.57;101910.69;5058256;28;45575;-48
2023/09/03 04:13:34;;;;;;;;;3.40;3.40;;;;;22.22;67.76;101909.84;5058179;28;45410;-49
2023/09/03 04:16:04;;;;;;;;;3.80;3.00;;;;;22.19;68.08;101909.41;5057727;28;46121;-48
2023/09/03 04:18:30;;;;;;;;;7.00;3.40;;;;;22.17;67.80;101913.16;5057872;28;45382;-47
2023/09/03 04:20:57;;;;;;;;;2.00;2.00;;;;;22.17;67.67;101915.88;5057919;28;45378;-50
2023/09/03 04:23:23;;;;;;;;;4.60;3.00;;;;;22.18;67.33;101919.41;5057813;28;45359;-49
2023/09/03 04:25:53;;;;;;;;;6.00;4.00;;;;;22.11;67.63;101903.06;5058124;28;45333;-48
2023/09/03 04:28:19;;;;;;;;;3.20;3.20;;;;;22.16;68.39;101908.78;5057780;28;45370;-50
2023/09/03 04:30:45;;;;;;;;;3.40;3.40;;;;;22.10;67.93;101904.09;5057945;28;45381;-52
2023/09/03 04:33:10;;;;;;;;;2.00;2.00;;;;;22.15;68.20;101917.91;5057859;28;45418;-47
2023/09/03 04:35:36;;;;;;;;;2.75;2.75;;;;;22.13;67.95;101920.00;5057187;28;46928;-48
2023/09/03 04:38:03;;;;;;;;;2.20;0.00;;;;;22.10;68.31;101916.81;5057558;28;45537;-48
2023/09/03 04:40:32;;;;;;;;;4.60;3.40;;;;;22.10;68.12;101920.34;5057550;28;45315;-45
2023/09/03 04:42:57;;;;;;;;;11.00;10.00;;;;;22.07;68.12;101920.72;5058002;28;45487;-47
2023/09/03 04:45:22;;;;;;;;;59.67;45.33;;;;;22.08;68.56;101927.84;5057294;28;47076;-52
2023/09/03 04:47:48;;;;;;;;;18.50;12.25;;;;;22.08;68.45;101922.44;5057561;28;45414;-51
2023/09/03 04:50:13;;;;;;;;;3.00;3.00;;;;;22.06;68.11;101926.34;5057436;28;45383;-47
2023/09/03 04:52:46;;;;;;;;;3.00;3.00;;;;;22.06;68.16;101923.66;5057704;28;45469;-51
2023/09/03 04:55:11;;;;;;;;;4.00;4.00;;;;;22.07;68.23;101928.03;5057395;28;46111;-49
2023/09/03 04:57:36;;;;;;;;;4.00;4.00;;;;;22.00;68.62;101919.84;5057505;28;45226;-47
2023/09/03 05:00:04;;;;;;;;;3.75;3.75;;;;;22.02;68.24;101922.34;5057429;28;45271;-52
2023/09/03 05:02:29;;;;;;;;;4.00;3.40;;;;;21.97;68.63;101911.25;5057573;28;45366;-50
2023/09/03 05:04:54;;;;;;;;;2.25;2.25;;;;;22.00;68.37;101919.00;5057107;28;45909;-52
2023/09/03 05:07:20;;;;;;;;;3.50;3.50;;;;;21.98;68.50;101921.06;5056999;28;45359;-48
2023/09/03 05:09:45;;;;;;;;;3.75;3.75;;;;;22.00;68.58;101925.28;5057342;28;45412;-48
2023/09/03 05:12:10;;;;;;;;;3.00;3.00;;;;;22.00;68.90;101929.84;5057091;28;45531;-48
2023/09/03 05:14:36;;;;;;;;;2.75;2.75;;;;;21.99;69.00;101931.69;5057164;28;46132;-49
2023/09/03 05:17:01;;;;;;;;;6.00;4.00;;;;;21.96;68.88;101928.56;5057283;28;45399;-48
2023/09/03 05:19:26;;;;;;;;;4.00;4.00;;;;;21.96;68.57;101921.25;5057001;28;45329;-46
2023/09/03 05:21:52;;;;;;;;;3.25;3.25;;;;;22.01;68.76;101926.09;5057614;28;45471;-48
2023/09/03 05:24:17;;;;;;;;;6.50;4.00;;;;;22.03;68.60;101924.84;5056853;28;46179;-49
2023/09/03 05:26:43;;;;;;;;;5.00;4.00;;;;;22.03;68.38;101934.84;5057287;28;45316;-49
2023/09/03 05:29:08;;;;;;;;;3.00;3.00;;;;;22.04;68.48;101945.53;5056925;28;45334;-48
2023/09/03 05:31:35;;;;;;;;;4.25;3.50;;;;;22.00;68.84;101937.97;5057186;28;45414;-52
2023/09/03 05:34:01;;;;;;;;;4.00;3.40;;;;;22.05;68.34;101943.66;5056725;28;47063;-48
2023/09/03 05:36:27;;;;;;;;;3.25;3.25;;;;;22.07;68.21;101958.66;5056917;28;45279;-51
2023/09/03 05:38:52;;;;;;;;;7.25;4.50;;;;;22.06;68.17;101954.28;5055566;28;45318;-50
2023/09/03 05:41:17;;;;;;;;;5.00;4.00;;;;;22.05;68.28;101940.94;5057214;28;45552;-49
2023/09/03 05:43:43;;;;;;;;;5.25;3.00;;;;;22.13;67.98;101951.69;5056221;28;49315;-50
2023/09/03 05:46:08;;;;;;;;;3.00;3.00;;;;;22.12;67.72;101948.16;5056687;28;45469;-52
2023/09/03 05:48:34;;;;;;;;;3.25;3.25;;;;;22.11;68.04;101951.00;5056446;28;45425;-49
2023/09/03 05:51:03;;;;;;;;;5.00;5.00;;;;;22.18;68.00;101960.06;5056386;28;45470;-48
2023/09/03 05:53:33;;;;;;;;;4.00;3.00;;;;;22.21;67.54;101967.81;5056373;28;45646;-51
2023/09/03 05:56:11;;;;;;;;;5.00;3.00;;;;;22.24;67.77;101963.88;5056355;28;45395;-48
2023/09/03 05:58:37;;;;;;;;;3.60;3.60;;;;;22.26;67.47;101968.06;5055372;28;45837;-52
2023/09/03 06:01:07;;;;;;;;;4.00;3.00;;;;;22.31;67.29;101970.19;5056700;28;45370;-46
2023/09/03 06:03:33;;;;;;;;;3.40;3.40;;;;;22.37;67.24;101977.53;5056257;28;46065;-50
2023/09/03 06:06:09;;;;;;;;;3.00;3.00;;;;;22.41;66.84;101986.97;5055997;28;45419;-50
2023/09/03 06:08:36;;;;;;;;;4.60;4.00;;;;;22.47;67.05;101986.19;5056270;28;45344;-49
2023/09/03 06:11:02;;;;;;;;;4.00;3.20;;;;;22.53;66.77;101990.00;5056577;28;45495;-48
2023/09/03 06:13:28;;;;;;;;;4.20;4.20;;;;;22.59;66.71;101990.06;5055952;28;46929;-49
2023/09/03 06:15:54;;;;;;;;;6.60;3.80;;;;;22.62;66.30;101989.66;5056133;28;45220;-51
2023/09/03 06:18:20;;;;;;;;;3.20;3.20;;;;;22.70;66.43;101998.69;5055487;28;45241;-47
2023/09/03 06:20:45;;;;;;;;;4.75;3.00;;;;;22.73;65.99;102003.72;5056302;28;45296;-49
2023/09/03 06:23:15;;;;;;;;;6.75;5.00;;;;;22.78;65.75;102006.69;5055956;28;47136;-50
2023/09/03 06:25:45;;;;;;;;;3.60;3.40;;;;;22.81;65.97;102015.28;5055698;28;45538;-51
2023/09/03 06:28:10;;;;;;;;;2.80;2.40;;;;;22.85;65.82;102010.28;5056205;28;45318;-48
2023/09/03 06:30:36;;;;;;;;;3.00;3.00;;;;;22.93;65.42;102017.50;5056253;28;45470;-47
2023/09/03 06:33:01;;;;;;;;;4.00;4.00;;;;;22.95;65.13;102016.22;5055778;28;45443;-49
2023/09/03 06:35:26;;;;;;;;;8.25;4.00;;;;;22.96;65.15;102017.06;5055844;28;45228;-48
2023/09/03 06:37:52;;;;;;;;;5.00;3.00;;;;;23.00;65.18;102012.94;5055957;28;45323;-47
2023/09/03 06:40:17;;;;;;;;;4.00;4.00;;;;;23.04;64.99;102012.31;5056253;28;45951;-48
2023/09/03 06:42:43;;;;;;;;;3.75;3.75;;;;;23.08;64.49;102016.31;5055584;28;46820;-49
2023/09/03 06:45:09;;;;;;;;;5.25;3.00;;;;;22.91;64.62;101980.50;5055670;28;45337;-51
2023/09/03 06:47:34;;;;;;;;;4.00;4.00;;;;;23.21;64.08;102021.00;5055722;28;45323;-48
2023/09/03 06:50:00;;;;;;;;;3.00;3.00;;;;;23.28;63.89;102027.31;5054403;28;45440;-49
2023/09/03 06:52:25;;;;;;;;;2.75;2.75;;;;;23.35;63.60;102035.50;5055341;28;46158;-49
2023/09/03 06:54:51;;;;;;;;;3.00;3.00;;;;;23.42;63.00;102028.22;5055510;28;45375;-50
2023/09/03 06:57:16;;;;;;;;;3.25;3.25;;;;;23.47;63.05;102023.06;5055648;28;45445;-47
2023/09/03 06:59:42;;;;;;;;;3.00;3.00;;;;;23.58;62.89;102033.31;5055854;28;45447;-51
2023/09/03 07:02:08;;;;;;;;;5.75;3.00;;;;;23.70;62.78;102030.06;5055607;28;46075;-49
2023/09/03 07:04:34;;;;;;;;;4.50;4.00;;;;;23.85;62.30;102037.03;5055556;28;45343;-51
2023/09/03 07:06:59;;;;;;;;;28.25;25.25;;;;;24.02;61.89;102034.81;5055416;28;45322;-47
2023/09/03 07:09:28;;;;;;;;;15.75;14.25;;;;;24.21;61.57;102040.50;5055401;28;45426;-49
2023/09/03 07:11:54;;;;;;;;;8.40;8.40;;;;;24.47;60.35;102043.28;5055200;28;46482;-48
2023/09/03 07:14:19;;;;;;;;;2.75;2.75;;;;;24.84;59.15;102050.00;5055391;28;46418;-50
2023/09/03 07:16:44;;;;;;;;;3.00;3.00;;;;;25.22;58.48;102040.38;5055606;28;45454;-51
2023/09/03 07:19:10;;;;;;;;;3.75;3.75;;;;;25.87;57.29;102038.50;5055616;28;45590;-48
2023/09/03 07:21:35;;;;;;;;;5.25;3.00;;;;;26.58;55.30;102042.91;5055298;28;45981;-49
2023/09/03 07:24:00;;;;;;;;;2.50;2.50;;;;;27.42;53.51;102046.16;5055063;28;45389;-51
2023/09/03 07:26:26;;;;;;;;;5.50;3.00;;;;;28.06;51.31;102048.34;5055449;28;45538;-48
2023/09/03 07:28:51;;;;;;;;;4.00;2.00;;;;;28.75;50.04;102053.44;5056038;28;45314;-50
2023/09/03 07:31:16;;;;;;;;;3.50;3.50;;;;;29.38;48.90;102051.91;5058671;28;46985;-48
2023/09/03 07:33:44;;;;;;;;;3.00;3.00;;;;;29.88;47.38;102035.72;5058695;28;45257;-49
2023/09/03 07:36:10;;;;;;;;;1.20;1.20;;;;;30.45;45.72;102034.84;5058348;28;45470;-51
2023/09/03 07:38:38;;;;;;;;;2.60;1.40;;;;;30.77;45.04;102038.72;5058514;28;45506;-51
2023/09/03 07:41:03;;;;;;;;;4.60;3.00;;;;;31.65;43.16;102040.78;5058366;28;46342;-52
2023/09/03 07:43:29;;;;;;;;;4.25;3.00;;;;;32.35;40.78;102023.38;5058166;28;45411;-49
2023/09/03 07:45:55;;;;;;;;;3.00;3.00;;;;;32.79;40.11;102029.56;5058381;28;45427;-52
2023/09/03 07:48:20;;;;;;;;;2.00;2.00;;;;;33.53;38.70;102016.75;5057593;28;45479;-54
2023/09/03 07:50:46;;;;;;;;;2.00;2.00;;;;;34.26;37.52;102009.22;5058071;28;45335;-52
2023/09/03 07:53:11;;;;;;;;;2.00;2.00;;;;;34.82;36.68;102004.78;5058301;28;45329;-50
2023/09/03 07:55:37;;;;;;;;;2.50;2.00;;;;;35.45;36.25;101999.63;5058278;28;45490;-51
2023/09/03 07:58:02;;;;;;;;;2.00;2.00;;;;;35.99;34.85;102004.34;5058272;28;45419;-53
2023/09/03 08:00:28;;;;;;;;;2.00;2.00;;;;;36.55;34.76;102005.88;5057987;28;45342;-53
2023/09/03 08:02:54;;;;;;;;;2.00;2.00;;;;;36.86;33.36;102007.19;5058041;28;45388;-52
2023/09/03 08:05:19;;;;;;;;;3.00;3.00;;;;;36.94;32.97;102005.75;5058602;28;45184;-55
2023/09/03 08:07:45;;;;;;;;;2.00;2.00;;;;;37.20;32.60;102009.06;5057944;28;45275;-52
2023/09/03 08:10:11;;;;;;;;;1.75;1.75;;;;;37.61;32.07;102014.09;5057659;28;46325;-52
2023/09/03 08:12:36;;;;;;;;;3.00;1.00;;;;;38.03;31.49;102010.44;5057821;28;45311;-49
2023/09/03 08:15:01;;;;;;;;;1.75;1.75;;;;;38.55;31.18;102016.81;5058136;28;45388;-53
2023/09/03 08:17:29;;;;;;;;;0.50;0.50;;;;;38.87;29.65;102018.75;5058289;28;45268;-54
2023/09/03 08:19:55;;;;;;;;;3.20;2.80;;;;;38.72;30.27;102016.22;5057379;28;46111;-54
2023/09/03 08:22:20;;;;;;;;;2.00;1.00;;;;;38.52;31.04;102014.69;5057958;28;45352;-54
2023/09/03 08:24:45;;;;;;;;;2.00;2.00;;;;;38.44;30.96;102009.81;5057805;28;45789;-52
2023/09/03 08:27:11;;;;;;;;;2.00;2.00;;;;;38.40;30.74;102001.25;5057998;28;45332;-52
2023/09/03 08:29:37;;;;;;;;;2.00;2.00;;;;;38.41;31.01;102000.13;5057324;28;51229;-52
2023/09/03 08:32:02;;;;;;;;;1.00;1.00;;;;;38.57;31.12;102008.19;5057625;28;45495;-58
2023/09/03 08:34:27;;;;;;;;;1.50;1.00;;;;;38.71;30.62;102002.66;5057858;28;45778;-57
2023/09/03 08:36:53;;;;;;;;;1.50;1.25;;;;;38.66;31.16;102018.28;5057694;28;45593;-50
2023/09/03 08:39:18;;;;;;;;;2.50;2.50;;;;;38.54;30.77;102008.78;5057372;28;45440;-53
2023/09/03 08:41:46;;;;;;;;;1.00;1.00;;;;;38.51;31.50;101999.09;5057005;28;45427;-49
2023/09/03 08:44:36;;;;;;;;;1.00;1.00;;;;;38.57;30.98;102010.97;5056374;28;45320;-52
2023/09/03 08:47:03;;;;;;;;;2.80;2.00;;;;;38.81;31.04;102016.38;5058201;28;45391;-48
2023/09/03 08:49:31;;;;;;;;;4.60;2.40;;;;;38.89;30.18;102021.22;5056912;28;45441;-56
2023/09/03 08:51:59;;;;;;;;;3.20;2.40;;;;;39.03;29.46;102008.16;5057416;28;45360;-56
2023/09/03 08:54:26;;;;;;;;;3.40;3.40;;;;;39.21;29.94;102005.59;5057260;28;45419;-56
2023/09/03 08:56:51;;;;;;;;;2.60;2.40;;;;;39.72;28.89;102008.13;5057658;28;45313;-57
2023/09/03 08:59:17;;;;;;;;;3.00;1.00;;;;;40.22;28.60;102010.84;5057345;28;46154;-54
2023/09/03 09:01:45;;;;;;;;;3.75;1.75;;;;;41.43;29.58;102026.56;5057206;28;45685;-52
2023/09/03 09:04:12;;;;;;;;;2.40;2.40;;;;;43.25;25.19;102007.50;5057447;28;45420;-55
2023/09/03 09:06:41;;;;;;;;;2.00;2.00;;;;;44.95;23.64;102033.00;5057548;28;45355;-50
2023/09/03 09:09:07;;;;;;;;;4.00;3.00;;;;;45.42;22.37;102032.53;5057097;28;45402;-53
2023/09/03 09:11:39;;;;;;;;;2.00;2.00;;;;;45.48;22.93;102025.53;5057205;28;45510;-52
2023/09/03 09:14:11;;;;;;;;;2.40;2.40;;;;;45.23;22.40;102025.53;5056743;28;45452;-49
2023/09/03 09:16:36;;;;;;;;;2.00;2.00;;;;;45.00;22.89;102035.56;5057521;28;45395;-51
2023/09/03 09:19:02;;;;;;;;;2.75;2.75;;;;;44.92;24.15;102040.13;5057076;28;45358;-51
2023/09/03 09:21:30;;;;;;;;;3.75;2.50;;;;;45.01;23.29;102038.03;5057005;28;45447;-51
2023/09/03 09:24:02;;;;;;;;;0.60;0.60;;;;;45.27;22.95;102050.94;5056951;28;45390;-50
2023/09/03 09:26:31;;;;;;;;;2.00;2.00;;;;;45.99;22.55;102039.91;5057264;28;45509;-50
2023/09/03 09:29:02;;;;;;;;;2.60;2.60;;;;;46.73;21.04;102037.50;5056619;28;46627;-51
2023/09/03 09:31:32;;;;;;;;;2.20;2.20;;;;;47.96;21.18;102037.97;5057059;28;45320;-49
2023/09/03 09:34:09;;;;;;;;;2.80;2.40;;;;;48.93;19.70;102039.78;5057074;28;45244;-49
2023/09/03 09:36:35;;;;;;;;;2.00;2.00;;;;;50.33;18.54;102039.66;5056847;28;45445;-53
2023/09/03 09:39:05;;;;;;;;;1.60;1.60;;;;;51.03;17.55;102038.63;5056747;28;46164;-52
2023/09/03 09:41:31;;;;;;;;;3.80;2.20;;;;;51.88;17.06;102049.69;5056514;28;45792;-54
2023/09/03 09:43:56;;;;;;;;;3.00;2.00;;;;;52.97;16.27;102046.53;5056969;28;45323;-54
2023/09/03 09:46:31;;;;;;;;;2.67;2.00;;;;;53.87;15.58;102046.31;5056960;28;45358;-50
2023/09/03 09:48:58;;;;;;;;;1.75;1.75;;;;;54.39;15.29;102046.38;5056084;28;45368;-50
2023/09/03 09:51:25;;;;;;;;;4.00;2.50;;;;;54.69;15.27;102045.72;5056717;28;45301;-51
2023/09/03 09:53:58;;;;;;;;;2.00;2.00;;;;;54.57;14.21;102056.41;5055906;28;45416;-52
2023/09/03 09:56:37;;;;;;;;;1.00;1.00;;;;;54.60;14.17;102048.25;5056733;28;45545;-53
2023/09/03 09:59:03;;;;;;;;;7.25;5.00;;;;;54.84;16.09;102050.09;5056420;28;46055;-52
2023/09/03 10:01:43;;;;;;;;;2.25;2.25;;;;;55.05;15.00;102044.16;5056317;28;45339;-47
2023/09/03 10:04:09;;;;;;;;;2.75;2.25;;;;;55.78;14.22;102036.38;5056261;28;45434;-47
2023/09/03 10:06:36;;;;;;;;;2.75;2.00;;;;;55.97;13.73;102037.72;5056814;28;45436;-46
2023/09/03 10:09:02;;;;;;;;;2.25;2.25;;;;;56.37;13.71;102035.84;5055778;28;45296;-55
2023/09/03 10:11:27;;;;;;;;;5.00;4.00;;;;;56.84;13.37;102035.88;5056266;28;45384;-50
2023/09/03 10:13:54;;;;;;;;;2.67;2.67;;;;;56.54;13.27;102030.31;5056475;28;45290;-50
2023/09/03 10:16:22;;;;;;;;;2.25;2.25;;;;;56.49;13.19;102029.56;5056528;28;45492;-51
2023/09/03 10:18:49;;;;;;;;;4.25;2.50;;;;;56.35;14.33;102032.66;5056246;28;45347;-49
2023/09/03 10:21:24;;;;;;;;;4.25;4.25;;;;;56.30;13.87;102029.47;5056100;28;45335;-50
2023/09/03 10:23:51;;;;;;;;;2.25;2.25;;;;;57.03;13.92;102028.59;5054910;28;45310;-51
2023/09/03 10:26:41;;;;;;;;;1.00;1.00;;;;;57.09;13.04;102003.94;5056427;28;45174;-52
2023/09/03 10:29:10;;;;;;;;;3.00;3.00;;;;;57.04;13.15;102029.41;5056122;28;46758;-50
2023/09/03 10:31:38;;;;;;;;;4.75;2.75;;;;;55.93;13.74;102026.38;5055914;28;45244;-53
2023/09/03 10:34:09;;;;;;;;;3.75;2.00;;;;;56.24;13.05;102023.44;5054996;28;45503;-49
2023/09/03 10:36:35;;;;;;;;;3.25;3.25;;;;;56.43;12.56;102033.34;5056173;28;45933;-47
2023/09/03 10:39:21;;;;;;;;;3.50;3.00;;;;;56.64;12.73;102030.13;5055980;28;45429;-48
2023/09/03 10:41:46;;;;;;;;;2.00;1.50;;;;;56.59;12.11;102030.59;5056087;28;45375;-50
2023/09/03 10:44:15;;;;;;;;;2.67;2.67;;;;;56.75;13.35;102033.59;5056084;28;45510;-47
2023/09/03 10:46:59;;;;;;;;;2.00;2.00;;;;;56.95;12.37;102036.47;5056079;28;45492;-49
2023/09/03 10:49:39;;;;;;;;;2.75;2.00;;;;;56.79;12.82;102030.66;5053957;28;47626;-48
2023/09/03 10:52:31;;;;;;;;;3.50;3.00;;;;;57.08;12.74;102036.66;5055959;28;45425;-48
2023/09/03 10:55:20;;;;;;;;;2.00;2.00;;;;;57.49;12.06;102038.28;5055931;28;45395;-49
2023/09/03 10:58:10;;;;;;;;;1.75;1.75;;;;;57.24;12.74;102033.06;5056026;28;45475;-52
2023/09/03 11:00:36;;;;;;;;;3.50;2.00;;;;;57.21;12.13;102034.75;5055082;28;45402;-51
2023/09/03 11:03:18;;;;;;;;;2.00;2.00;;;;;56.62;13.80;102031.78;5055624;28;45463;-48
2023/09/03 11:06:20;;;;;;;;;2.25;2.25;;;;;56.17;12.97;102026.41;5058788;28;45848;-51
2023/09/03 11:09:13;;;;;;;;;3.00;2.25;;;;;56.79;12.60;102024.16;5059442;28;45302;-51
2023/09/03 11:11:39;;;;;;;;;2.00;2.00;;;;;56.68;12.26;102007.16;4996715;28;47104;-46
2023/09/03 11:14:10;;;;;;;;;2.67;2.67;;;;;57.11;12.49;102006.38;4996802;28;45241;-51
2023/09/03 11:16:38;;;;;;;;;4.25;3.00;;;;;57.48;11.66;102008.88;4997139;28;45437;-51
2023/09/03 11:19:07;;;;;;;;;3.25;3.25;;;;;57.42;11.69;102007.75;4996999;28;45466;-55
2023/09/03 11:21:34;;;;;;;;;2.50;2.50;;;;;57.18;12.27;102000.50;4996451;28;45795;-54
2023/09/03 11:24:06;;;;;;;;;4.00;2.75;;;;;56.69;11.52;102003.09;4996939;28;45418;-54
2023/09/03 11:26:34;;;;;;;;;3.00;3.00;;;;;56.57;11.81;102006.56;4996772;28;45471;-49
2023/09/03 11:29:01;;;;;;;;;2.75;2.50;;;;;56.07;11.93;101995.97;4997009;28;45443;-55